createdAt,value
2023-01-15T00:00:18.947Z,8.19
2023-01-15T00:02:45.443Z,8.34
2023-01-15T00:05:11.953Z,8.32
2023-01-15T00:07:38.377Z,8.35
2023-01-15T00:10:05.189Z,8.36
2023-01-15T00:12:31.609Z,8.32
2023-01-15T00:14:58.345Z,8.38
2023-01-15T00:17:24.935Z,8.42
2023-01-15T00:19:51.342Z,8.39
2023-01-15T00:22:17.906Z,8.37
2023-01-15T00:25:02.903Z,8.38
2023-01-15T00:27:41.811Z,8.42
2023-01-15T00:30:11.542Z,8.28
2023-01-15T00:32:38.797Z,8.43
2023-01-15T00:35:05.773Z,8.42
2023-01-15T00:37:32.187Z,8.42
2023-01-15T00:39:58.598Z,8.42
2023-01-15T00:42:25.000Z,8.27
2023-01-15T00:44:51.507Z,8.32
2023-01-15T00:47:18.080Z,8.34
2023-01-15T00:49:44.638Z,8.34
2023-01-15T00:52:12.144Z,8.44
2023-01-15T00:54:38.553Z,8.42
2023-01-15T00:57:05.081Z,8.39
2023-01-15T00:59:31.499Z,8.36
2023-01-15T01:01:57.987Z,8.32
2023-01-15T01:04:24.510Z,8.19
2023-01-15T01:06:50.973Z,8.29
2023-01-15T01:09:17.427Z,8.19
2023-01-15T01:11:44.005Z,8.17
2023-01-15T01:14:11.559Z,8.15
2023-01-15T01:16:39.577Z,8.19
2023-01-15T01:19:20.479Z,8.21
2023-01-15T01:21:47.839Z,8.25
2023-01-15T01:24:17.472Z,8.24
2023-01-15T01:26:45.205Z,8.21
2023-01-15T01:29:16.002Z,8.22
2023-01-15T01:31:42.805Z,8.31
2023-01-15T01:34:10.819Z,8.23
2023-01-15T01:36:39.944Z,8.22
2023-01-15T01:39:07.804Z,8.21
2023-01-15T01:41:34.615Z,8.24
2023-01-15T01:44:02.924Z,8.24
2023-01-15T01:46:34.510Z,8.28
2023-01-15T01:49:05.784Z,8.21
2023-01-15T01:51:40.220Z,8.26
2023-01-15T01:54:07.649Z,8.28
2023-01-15T01:56:36.251Z,8.31
2023-01-15T01:59:03.475Z,8.27
2023-01-15T02:01:30.484Z,8.29
2023-01-15T02:03:57.768Z,8.35
2023-01-15T02:06:26.001Z,8.29
2023-01-15T02:08:52.876Z,8.35
2023-01-15T02:11:21.705Z,8.31
2023-01-15T02:14:09.892Z,8.24
2023-01-15T02:16:51.766Z,8.21
2023-01-15T02:19:30.573Z,8.19
2023-01-15T02:22:03.042Z,8.17
2023-01-15T02:24:54.155Z,8.19
2023-01-15T02:27:24.011Z,8.13
2023-01-15T02:30:13.461Z,8.26
2023-01-15T02:32:50.860Z,8.19
2023-01-15T02:35:25.127Z,8.20
2023-01-15T02:37:55.588Z,8.17
2023-01-15T02:40:23.344Z,8.13
2023-01-15T02:42:50.149Z,8.22
2023-01-15T02:45:24.126Z,8.16
2023-01-15T02:47:52.140Z,8.23
2023-01-15T02:50:23.113Z,8.17
2023-01-15T02:52:52.145Z,8.19
2023-01-15T02:55:23.347Z,8.13
2023-01-15T02:57:50.535Z,8.16
2023-01-15T03:00:19.077Z,8.11
2023-01-15T03:02:57.803Z,8.08
2023-01-15T03:05:28.149Z,8.07
2023-01-15T03:07:57.724Z,8.09
2023-01-15T03:11:09.372Z,8.09
2023-01-15T03:13:45.715Z,8.08
2023-01-15T03:16:35.373Z,8.12
2023-01-15T03:19:18.205Z,8.21
2023-01-15T03:21:57.135Z,8.17
2023-01-15T03:24:47.864Z,8.21
2023-01-15T03:27:15.393Z,8.24
2023-01-15T03:29:45.204Z,8.16
2023-01-15T03:32:11.646Z,8.16
2023-01-15T03:34:51.075Z,8.18
2023-01-15T03:37:18.761Z,8.25
2023-01-15T03:39:45.390Z,8.11
2023-01-15T03:42:20.689Z,8.19
2023-01-15T03:44:57.961Z,8.14
2023-01-15T03:47:45.937Z,8.07
2023-01-15T03:50:25.046Z,7.98
2023-01-15T03:53:05.183Z,7.97
2023-01-15T03:55:52.582Z,7.97
2023-01-15T03:58:41.874Z,7.99
2023-01-15T04:01:11.256Z,8.01
2023-01-15T04:03:37.934Z,8.02
2023-01-15T04:06:04.720Z,8.03
2023-01-15T04:08:34.000Z,8.04
2023-01-15T04:11:01.824Z,7.98
2023-01-15T04:13:31.251Z,7.98
2023-01-15T04:15:58.181Z,8.04
2023-01-15T04:18:24.659Z,8.04
2023-01-15T04:20:51.389Z,8.09
2023-01-15T04:23:17.978Z,8.14
2023-01-15T04:25:44.446Z,8.17
2023-01-15T04:28:11.029Z,8.15
2023-01-15T04:30:37.628Z,8.22
2023-01-15T04:33:04.201Z,8.22
2023-01-15T04:35:30.819Z,8.28
2023-01-15T04:38:00.713Z,8.23
2023-01-15T04:40:46.327Z,8.19
2023-01-15T04:43:32.472Z,8.25
2023-01-15T04:45:59.486Z,8.28
2023-01-15T04:48:26.257Z,8.27
2023-01-15T04:50:52.755Z,8.29
2023-01-15T04:53:19.178Z,8.35
2023-01-15T04:55:45.656Z,8.36
2023-01-15T04:58:12.201Z,8.09
2023-01-15T05:00:38.786Z,8.24
2023-01-15T05:03:05.166Z,8.24
2023-01-15T05:05:32.682Z,8.28
2023-01-15T05:07:59.150Z,8.21
2023-01-15T05:10:25.664Z,8.21
2023-01-15T05:12:52.048Z,8.17
2023-01-15T05:15:18.455Z,8.16
2023-01-15T05:17:44.876Z,8.15
2023-01-15T05:20:11.819Z,8.09
2023-01-15T05:22:38.315Z,8.05
2023-01-15T05:25:05.136Z,8.09
2023-01-15T05:27:31.560Z,7.90
2023-01-15T05:29:57.994Z,7.89
2023-01-15T05:32:24.468Z,7.97
2023-01-15T05:34:50.877Z,7.98
2023-01-15T05:37:17.308Z,7.99
2023-01-15T05:39:43.736Z,8.01
2023-01-15T05:42:10.181Z,8.08
2023-01-15T05:44:36.608Z,7.94
2023-01-15T05:47:05.759Z,8.04
2023-01-15T05:49:32.275Z,8.02
2023-01-15T05:52:00.470Z,8.01
2023-01-15T05:54:29.457Z,8.11
2023-01-15T05:56:56.109Z,8.12
2023-01-15T05:59:25.048Z,8.07
2023-01-15T06:01:52.333Z,8.09
2023-01-15T06:04:21.252Z,8.12
2023-01-15T06:06:49.148Z,8.07
2023-01-15T06:09:15.766Z,8.08
2023-01-15T06:11:42.231Z,8.08
2023-01-15T06:14:08.885Z,8.09
2023-01-15T06:16:35.315Z,8.01
2023-01-15T06:19:04.331Z,7.99
2023-01-15T06:21:32.064Z,8.00
2023-01-15T06:23:58.652Z,8.00
2023-01-15T06:26:25.410Z,7.98
2023-01-15T06:28:52.158Z,7.94
2023-01-15T06:31:20.481Z,7.94
2023-01-15T06:33:46.985Z,7.97
2023-01-15T06:36:21.584Z,7.95
2023-01-15T06:38:48.821Z,7.78
2023-01-15T06:41:40.487Z,7.71
2023-01-15T06:44:30.795Z,7.70
2023-01-15T06:47:15.968Z,7.61
2023-01-15T06:49:42.434Z,7.51
2023-01-15T06:52:08.836Z,7.45
2023-01-15T06:54:36.783Z,7.37
2023-01-15T06:57:03.488Z,7.38
2023-01-15T06:59:30.175Z,7.42
2023-01-15T07:01:56.693Z,7.41
2023-01-15T07:04:23.315Z,7.28
2023-01-15T07:06:49.829Z,7.31
2023-01-15T07:09:16.335Z,7.27
2023-01-15T07:11:51.928Z,7.25
2023-01-15T07:14:20.147Z,7.28
2023-01-15T07:16:47.576Z,7.30
2023-01-15T07:19:14.249Z,7.31
2023-01-15T07:21:41.154Z,7.26
2023-01-15T07:24:08.122Z,7.22
2023-01-15T07:26:34.964Z,7.19
2023-01-15T07:29:01.460Z,7.13
2023-01-15T07:31:27.968Z,7.08
2023-01-15T07:33:56.528Z,7.03
2023-01-15T07:36:23.652Z,6.99
2023-01-15T07:38:50.388Z,6.96
2023-01-15T07:41:36.393Z,6.96
2023-01-15T07:44:21.481Z,7.01
2023-01-15T07:47:06.482Z,6.97
2023-01-15T07:49:51.200Z,6.97
2023-01-15T07:52:22.325Z,7.04
2023-01-15T07:54:50.466Z,7.02
2023-01-15T07:57:19.417Z,6.96
2023-01-15T07:59:45.909Z,7.02
2023-01-15T08:02:13.110Z,7.04
2023-01-15T08:04:39.619Z,7.02
2023-01-15T08:07:06.068Z,7.00
2023-01-15T08:09:32.825Z,7.05
2023-01-15T08:12:18.884Z,7.00
2023-01-15T08:15:04.499Z,6.97
2023-01-15T08:17:33.777Z,7.00
2023-01-15T08:20:00.544Z,6.92
2023-01-15T08:22:27.767Z,6.90
2023-01-15T08:24:54.215Z,6.84
2023-01-15T08:27:20.632Z,6.79
2023-01-15T08:29:47.097Z,6.76
2023-01-15T08:32:13.541Z,6.77
2023-01-15T08:34:39.995Z,6.75
2023-01-15T08:37:06.633Z,6.72
2023-01-15T08:39:33.678Z,6.68
2023-01-15T08:42:00.117Z,6.57
2023-01-15T08:44:26.645Z,6.61
2023-01-15T08:46:53.616Z,6.58
2023-01-15T08:49:21.236Z,6.58
2023-01-15T08:51:51.588Z,6.53
2023-01-15T08:54:19.755Z,6.51
2023-01-15T08:56:46.714Z,6.53
2023-01-15T08:59:13.205Z,6.53
2023-01-15T09:01:41.032Z,6.53
2023-01-15T09:04:07.647Z,6.55
2023-01-15T09:06:34.179Z,6.58
2023-01-15T09:09:00.731Z,6.66
2023-01-15T09:11:27.370Z,6.66
2023-01-15T09:13:54.399Z,6.66
2023-01-15T09:16:20.883Z,6.66
2023-01-15T09:18:47.307Z,6.72
2023-01-15T09:21:13.765Z,6.73
2023-01-15T09:23:40.173Z,6.75
2023-01-15T09:26:07.958Z,6.83
2023-01-15T09:28:34.868Z,6.89
2023-01-15T09:31:01.848Z,6.95
2023-01-15T09:33:28.514Z,7.05
2023-01-15T09:35:54.968Z,7.06
2023-01-15T09:38:21.838Z,7.17
2023-01-15T09:40:57.841Z,7.17
2023-01-15T09:43:51.201Z,7.35
2023-01-15T09:46:22.010Z,7.43
2023-01-15T09:49:04.243Z,7.57
2023-01-15T09:51:58.346Z,7.65
2023-01-15T09:54:59.904Z,7.81
2023-01-15T09:57:27.758Z,7.94
2023-01-15T10:00:00.983Z,8.05
2023-01-15T10:02:42.784Z,8.25
2023-01-15T10:05:19.719Z,8.30
2023-01-15T10:08:21.554Z,8.33
